Time;durP1;ratioP1;P1;durP2;ratioP2;P2;SDS_P1;SDS_P2;PMS_P1;PMS_P2;Temp;Humidity;BMP_temperature;BMP_pressure;BME280_temperature;BME280_humidity;BME280_pressure;Samples;Min_cycle;Max_cycle;Signal;HPM_P1;HPM_P2
2023/05/02 00:01:43;;;;;;;111.10;61.65;;;17.40;81.50;;;;;;4973204;28;94720;-44
2023/05/02 00:04:09;;;;;;;115.32;61.53;;;17.40;81.40;;;;;;4975579;28;96210;-45
2023/05/02 00:06:34;;;;;;;112.35;61.28;;;17.40;81.40;;;;;;4988599;28;97310;-44
2023/05/02 00:09:00;;;;;;;109.35;61.10;;;17.40;81.40;;;;;;4977744;28;95768;-47
2023/05/02 00:11:26;;;;;;;113.30;60.55;;;17.40;81.30;;;;;;4977120;28;94577;-48
2023/05/02 00:13:51;;;;;;;112.63;61.80;;;17.40;81.40;;;;;;4975408;28;94642;-45
2023/05/02 00:16:17;;;;;;;111.28;61.03;;;17.40;81.30;;;;;;4978177;28;95300;-47
2023/05/02 00:18:43;;;;;;;111.82;61.03;;;17.40;81.30;;;;;;4976808;28;94561;-43
2023/05/02 00:21:08;;;;;;;113.18;60.42;;;17.30;81.30;;;;;;4973836;28;93987;-45
2023/05/02 00:23:34;;;;;;;111.13;60.13;;;17.30;81.40;;;;;;4979194;28;94746;-48
2023/05/02 00:26:00;;;;;;;108.72;60.03;;;17.30;81.40;;;;;;4979469;28;95549;-46
2023/05/02 00:28:25;;;;;;;112.53;59.92;;;17.30;81.30;;;;;;4976905;28;95714;-44
2023/05/02 00:30:51;;;;;;;103.85;60.38;;;17.30;81.30;;;;;;4977141;28;95308;-44
2023/05/02 00:33:17;;;;;;;114.28;60.58;;;17.30;81.40;;;;;;4978390;28;95123;-44
2023/05/02 00:35:43;;;;;;;112.47;60.92;;;17.30;81.30;;;;;;4977155;28;94685;-45
2023/05/02 00:38:08;;;;;;;108.50;60.17;;;17.30;82.10;;;;;;4977586;28;95076;-43
2023/05/02 00:40:48;;;;;;;107.93;60.35;;;17.30;81.40;;;;;;4976679;28;94810;-43
2023/05/02 00:43:15;;;;;;;105.32;59.38;;;17.30;81.40;;;;;;4976836;28;95139;-44
2023/05/02 00:45:45;;;;;;;106.35;59.22;;;17.30;81.40;;;;;;4977899;28;95856;-47
2023/05/02 00:48:11;;;;;;;108.20;60.03;;;17.20;81.30;;;;;;4978369;28;95720;-44
2023/05/02 00:50:39;;;;;;;107.30;59.28;;;17.30;81.30;;;;;;4978881;28;95503;-46
2023/05/02 00:53:06;;;;;;;106.65;59.58;;;17.30;81.90;;;;;;4981117;28;96008;-44
2023/05/02 00:55:32;;;;;;;107.00;59.95;;;17.20;81.20;;;;;;4977246;28;96150;-45
2023/05/02 00:58:04;;;;;;;108.82;61.53;;;17.30;81.30;;;;;;4975797;28;95176;-46
2023/05/02 01:01:00;;;;;;;104.35;58.92;;;17.30;81.30;;;;;;4975631;28;94663;-44
2023/05/02 01:04:00;;;;;;;103.28;59.28;;;17.20;81.20;;;;;;4959499;28;94776;-44
2023/05/02 01:06:40;;;;;;;103.57;58.60;;;17.20;81.20;;;;;;4987728;28;94670;-44
2023/05/02 01:09:37;;;;;;;103.03;58.97;;;17.20;81.20;;;;;;4978347;28;95159;-49
2023/05/02 01:12:19;;;;;;;105.00;59.13;;;17.20;81.20;;;;;;4976285;28;94462;-48
2023/05/02 01:14:52;;;;;;;106.72;59.13;;;17.20;81.20;;;;;;4977983;28;95254;-46
2023/05/02 01:17:21;;;;;;;105.20;59.25;;;17.20;81.20;;;;;;4979751;28;94801;-45
2023/05/02 01:19:53;;;;;;;103.60;58.35;;;17.20;81.20;;;;;;4977996;28;95681;-44
2023/05/02 01:22:19;;;;;;;;;;;17.20;81.20;;;;;;4976685;28;94901;-47
2023/05/02 01:25:00;;;;;;;105.43;59.30;;;17.10;81.20;;;;;;4974132;28;95333;-48
2023/05/02 01:27:50;;;;;;;100.82;58.75;;;17.20;81.20;;;;;;4971234;28;94858;-46
2023/05/02 01:30:19;;;;;;;101.32;58.15;;;17.20;81.20;;;;;;4976007;28;94784;-48
2023/05/02 01:32:46;;;;;;;101.30;58.17;;;17.20;81.20;;;;;;4976040;28;95260;-45
2023/05/02 01:35:15;;;;;;;102.45;59.00;;;17.20;81.20;;;;;;4978612;28;95250;-48
2023/05/02 01:37:43;;;;;;;103.53;58.58;;;17.20;81.20;;;;;;4970584;28;95343;-45
2023/05/02 01:40:10;;;;;;;101.07;57.97;;;17.10;81.10;;;;;;4969620;28;95195;-44
2023/05/02 01:42:38;;;;;;;104.07;58.47;;;17.10;81.10;;;;;;4974849;28;94792;-48
2023/05/02 01:45:07;;;;;;;101.97;58.83;;;17.20;81.20;;;;;;4977750;28;97652;-49
2023/05/02 01:47:35;;;;;;;103.38;58.85;;;17.10;81.20;;;;;;4980698;28;95230;-44
2023/05/02 01:50:05;;;;;;;100.40;58.50;;;17.10;81.20;;;;;;4971234;28;95005;-45
2023/05/02 01:52:31;;;;;;;102.82;59.08;;;17.10;81.10;;;;;;4976367;28;96934;-46
2023/05/02 01:55:00;;;;;;;99.38;57.70;;;17.10;81.10;;;;;;4972488;28;94767;-46
2023/05/02 01:57:26;;;;;;;101.30;58.15;;;17.10;81.00;;;;;;4978801;28;96803;-46
2023/05/02 01:59:56;;;;;;;101.47;57.53;;;17.10;81.10;;;;;;4981238;28;94911;-47
2023/05/02 02:02:26;;;;;;;101.32;57.88;;;17.10;81.10;;;;;;4984876;28;94716;-47
2023/05/02 02:04:54;;;;;;;98.28;57.58;;;17.10;81.10;;;;;;4978744;28;95318;-48
2023/05/02 02:07:20;;;;;;;103.00;58.22;;;17.10;81.10;;;;;;4980299;28;96552;-48
2023/05/02 02:09:46;;;;;;;99.00;57.88;;;17.10;81.10;;;;;;4978820;28;95717;-48
2023/05/02 02:12:21;;;;;;;100.95;58.17;;;17.10;81.20;;;;;;4978659;28;95151;-47
2023/05/02 02:14:55;;;;;;;99.82;58.08;;;17.10;81.20;;;;;;4968967;28;96095;-48
2023/05/02 02:17:25;;;;;;;99.25;58.20;;;17.10;81.40;;;;;;4974622;28;99003;-46
2023/05/02 02:19:54;;;;;;;101.60;57.80;;;17.10;81.30;;;;;;4973915;28;94865;-45
2023/05/02 02:22:22;;;;;;;101.32;58.08;;;17.10;81.40;;;;;;4966858;28;95447;-44
2023/05/02 02:24:49;;;;;;;99.90;57.20;;;17.10;81.30;;;;;;4960869;28;95614;-43
2023/05/02 02:27:14;;;;;;;102.35;57.55;;;17.10;81.30;;;;;;4964831;28;95750;-44
2023/05/02 02:29:40;;;;;;;97.43;56.38;;;17.10;81.20;;;;;;4960361;28;96465;-44
2023/05/02 02:32:06;;;;;;;98.43;57.03;;;17.00;81.10;;;;;;4966549;28;96002;-44
2023/05/02 02:34:31;;;;;;;98.30;57.63;;;17.00;81.00;;;;;;4965784;28;97686;-46
2023/05/02 02:37:07;;;;;;;95.65;56.90;;;17.00;81.10;;;;;;4960337;28;97544;-43
2023/05/02 02:39:48;;;;;;;99.50;57.35;;;17.00;81.00;;;;;;4959531;28;96685;-45
2023/05/02 02:42:54;;;;;;;100.97;57.75;;;17.00;81.00;;;;;;4965692;28;94772;-50
2023/05/02 02:45:26;;;;;;;98.25;56.88;;;17.00;81.00;;;;;;4964998;28;94822;-47
2023/05/02 02:48:04;;;;;;;99.55;56.80;;;17.00;81.00;;;;;;4978086;28;95471;-45
2023/05/02 02:50:40;;;;;;;96.88;57.30;;;17.00;81.00;;;;;;4966472;28;95293;-44
2023/05/02 02:53:17;;;;;;;96.65;57.03;;;17.00;81.00;;;;;;4967168;28;94898;-44
2023/05/02 02:55:46;;;;;;;98.15;57.40;;;17.00;80.90;;;;;;4960253;28;100327;-43
2023/05/02 02:58:35;;;;;;;95.57;56.80;;;17.00;80.90;;;;;;4964540;28;96296;-44
2023/05/02 03:01:05;;;;;;;96.40;57.15;;;17.00;80.80;;;;;;4961743;28;96187;-46
2023/05/02 03:03:32;;;;;;;96.85;56.67;;;17.00;80.80;;;;;;4969046;28;96789;-44
2023/05/02 03:05:59;;;;;;;95.55;56.65;;;17.00;80.80;;;;;;4959516;28;96567;-44
2023/05/02 03:08:25;;;;;;;96.20;56.25;;;17.00;80.80;;;;;;4963259;28;96239;-45
2023/05/02 03:10:50;;;;;;;93.88;55.83;;;17.00;80.60;;;;;;4965972;28;95379;-44
2023/05/02 03:13:16;;;;;;;95.53;56.65;;;17.00;80.70;;;;;;4960392;28;95772;-46
2023/05/02 03:15:51;;;;;;;96.35;56.70;;;16.90;80.60;;;;;;4956119;28;96080;-45
2023/05/02 03:18:17;;;;;;;96.07;56.58;;;16.90;80.60;;;;;;4956288;28;95741;-44
2023/05/02 03:20:43;;;;;;;99.65;56.63;;;16.90;80.60;;;;;;4965319;28;96188;-46
2023/05/02 03:23:08;;;;;;;97.13;57.08;;;16.90;80.60;;;;;;4961509;28;100267;-46
2023/05/02 03:25:34;;;;;;;95.47;56.92;;;16.90;80.60;;;;;;4966830;28;96958;-43
2023/05/02 03:28:00;;;;;;;96.35;56.85;;;16.90;81.30;;;;;;4964377;28;96070;-45
2023/05/02 03:30:25;;;;;;;97.32;56.65;;;16.90;80.50;;;;;;4966897;28;95240;-44
2023/05/02 03:32:51;;;;;;;98.10;56.85;;;16.90;80.50;;;;;;4962037;28;96041;-44
2023/05/02 03:35:17;;;;;;;94.40;56.22;;;16.90;80.50;;;;;;4969523;28;95243;-45
2023/05/02 03:37:43;;;;;;;96.43;56.25;;;16.90;80.60;;;;;;4959224;28;94795;-44
2023/05/02 03:40:09;;;;;;;96.63;57.38;;;16.90;80.60;;;;;;4963430;28;95514;-43
2023/05/02 03:42:40;;;;;;;94.55;56.45;;;16.90;80.70;;;;;;4962463;28;94714;-43
2023/05/02 03:45:07;;;;;;;95.77;56.57;;;16.90;80.50;;;;;;4969030;28;95170;-43
2023/05/02 03:47:33;;;;;;;94.45;55.80;;;16.90;80.50;;;;;;4977777;28;95704;-44
2023/05/02 03:49:59;;;;;;;96.05;56.17;;;16.80;80.40;;;;;;4978208;28;95656;-43
2023/05/02 03:52:25;;;;;;;97.13;56.38;;;16.90;80.50;;;;;;4974859;28;95797;-44
2023/05/02 03:54:51;;;;;;;94.55;55.97;;;16.80;80.50;;;;;;4976831;28;95619;-44
2023/05/02 03:57:17;;;;;;;95.07;56.28;;;16.90;80.50;;;;;;4972866;28;94733;-44
2023/05/02 03:59:44;;;;;;;93.85;55.83;;;16.80;80.40;;;;;;4980802;28;94909;-46
2023/05/02 04:02:13;;;;;;;95.38;56.58;;;16.80;80.40;;;;;;4961024;28;95128;-44
2023/05/02 04:04:39;;;;;;;95.85;55.75;;;16.80;80.40;;;;;;4969139;28;100503;-43
2023/05/02 04:07:06;;;;;;;94.53;56.33;;;16.80;80.20;;;;;;4969197;28;95425;-43
2023/05/02 04:09:33;;;;;;;92.07;56.00;;;16.80;80.30;;;;;;4972755;28;95044;-44
2023/05/02 04:11:58;;;;;;;94.25;56.42;;;16.80;80.30;;;;;;4977665;28;95068;-45
2023/05/02 04:14:24;;;;;;;93.55;56.08;;;16.80;80.40;;;;;;4978069;28;96197;-46
2023/05/02 04:16:51;;;;;;;94.60;56.00;;;16.80;80.40;;;;;;4965409;28;95680;-45
2023/05/02 04:19:19;;;;;;;94.82;56.38;;;16.80;80.30;;;;;;4971439;28;95967;-43
2023/05/02 04:21:45;;;;;;;97.35;56.17;;;16.80;80.50;;;;;;4976944;28;94910;-44
2023/05/02 04:24:12;;;;;;;94.22;56.65;;;16.80;80.40;;;;;;4976134;28;95920;-44
2023/05/02 04:26:37;;;;;;;96.20;56.60;;;16.80;80.50;;;;;;4976148;28;95664;-44
2023/05/02 04:29:03;;;;;;;94.38;56.72;;;16.80;80.50;;;;;;4974311;28;96408;-44
2023/05/02 04:31:31;;;;;;;96.57;56.85;;;16.80;80.60;;;;;;4972233;28;93824;-44
2023/05/02 04:33:56;;;;;;;93.40;56.30;;;16.80;80.60;;;;;;4976428;28;97687;-44
2023/05/02 04:36:24;;;;;;;94.45;56.47;;;16.80;80.70;;;;;;4978448;28;95728;-44
2023/05/02 04:38:49;;;;;;;95.13;56.30;;;16.70;80.70;;;;;;4975727;28;95974;-43
2023/05/02 04:41:16;;;;;;;97.00;56.92;;;16.70;80.60;;;;;;4970509;28;95162;-45
2023/05/02 04:43:47;;;;;;;92.90;56.63;;;16.70;80.60;;;;;;4973746;28;95111;-48
2023/05/02 04:46:15;;;;;;;102.72;56.45;;;16.70;80.80;;;;;;4978744;28;95117;-43
2023/05/02 04:48:41;;;;;;;93.65;56.35;;;16.70;80.80;;;;;;4977041;28;94977;-44
2023/05/02 04:51:10;;;;;;;94.70;56.03;;;16.70;80.80;;;;;;4979182;28;95169;-43
2023/05/02 04:53:36;;;;;;;93.50;56.38;;;16.70;80.70;;;;;;4976285;28;94528;-43
2023/05/02 04:56:02;;;;;;;94.65;56.65;;;16.70;80.80;;;;;;4974736;28;95425;-48
2023/05/02 04:58:28;;;;;;;94.22;56.53;;;16.70;80.80;;;;;;4973228;28;96515;-43
2023/05/02 05:00:53;;;;;;;94.75;56.25;;;16.70;80.80;;;;;;4973987;28;94744;-44
2023/05/02 05:03:20;;;;;;;95.55;56.20;;;16.70;80.70;;;;;;4978338;28;95775;-44
2023/05/02 05:05:46;;;;;;;92.95;56.03;;;16.70;80.80;;;;;;4974321;28;95637;-44
2023/05/02 05:08:11;;;;;;;95.57;56.63;;;16.70;80.80;;;;;;4978319;28;96110;-43
2023/05/02 05:10:39;;;;;;;95.30;56.28;;;16.70;80.80;;;;;;4973842;28;94644;-45
2023/05/02 05:13:05;;;;;;;92.85;56.25;;;16.60;80.80;;;;;;4973396;28;94716;-44
2023/05/02 05:15:31;;;;;;;95.93;56.40;;;16.70;80.90;;;;;;4975000;28;96092;-45
2023/05/02 05:17:57;;;;;;;92.90;56.30;;;16.60;80.90;;;;;;4975063;28;94663;-43
2023/05/02 05:20:23;;;;;;;92.47;55.92;;;16.60;80.90;;;;;;4978106;28;93767;-43
2023/05/02 05:22:49;;;;;;;93.07;55.97;;;16.60;81.00;;;;;;4974650;28;94927;-42
2023/05/02 05:25:14;;;;;;;92.22;56.53;;;16.70;81.00;;;;;;4974815;28;94579;-46
2023/05/02 05:27:40;;;;;;;95.05;56.78;;;16.60;80.80;;;;;;4973194;28;98167;-44
2023/05/02 05:30:07;;;;;;;94.57;56.33;;;16.60;80.70;;;;;;4976309;28;95141;-44
2023/05/02 05:32:34;;;;;;;91.78;56.20;;;16.60;80.60;;;;;;4979778;28;96431;-43
2023/05/02 05:35:00;;;;;;;93.18;56.72;;;16.60;80.70;;;;;;4976636;28;95129;-45
2023/05/02 05:37:25;;;;;;;94.65;56.80;;;16.60;80.80;;;;;;4969468;28;95256;-45
2023/05/02 05:39:51;;;;;;;95.88;56.72;;;16.60;80.10;;;;;;4974770;28;97319;-45
2023/05/02 05:42:17;;;;;;;95.75;56.42;;;16.60;80.50;;;;;;4978742;28;95697;-43
2023/05/02 05:44:42;;;;;;;93.78;56.20;;;16.60;80.30;;;;;;4971209;28;95575;-44
2023/05/02 05:47:08;;;;;;;93.35;56.08;;;16.60;80.70;;;;;;4974844;28;94563;-44
2023/05/02 05:49:36;;;;;;;92.22;56.17;;;16.60;80.40;;;;;;4978835;28;94695;-43
2023/05/02 05:52:03;;;;;;;98.80;56.67;;;16.60;80.60;;;;;;4971128;28;95481;-44
2023/05/02 05:54:29;;;;;;;93.65;55.95;;;16.60;80.60;;;;;;4974944;28;95284;-43
2023/05/02 05:56:55;;;;;;;92.65;55.70;;;16.60;80.70;;;;;;4979826;28;94613;-47
2023/05/02 05:59:20;;;;;;;92.72;56.20;;;16.60;80.60;;;;;;4974317;28;94759;-44
2023/05/02 06:01:46;;;;;;;93.10;56.22;;;16.60;80.50;;;;;;4975766;28;96702;-43
2023/05/02 06:04:11;;;;;;;91.53;56.05;;;16.60;80.50;;;;;;4975472;28;95515;-43
2023/05/02 06:06:37;;;;;;;91.50;55.83;;;16.60;80.70;;;;;;4980113;28;94846;-44
2023/05/02 06:09:03;;;;;;;94.57;56.08;;;16.60;80.60;;;;;;4976475;28;94006;-46
2023/05/02 06:11:29;;;;;;;92.15;55.88;;;16.60;80.50;;;;;;4973576;28;97036;-43
2023/05/02 06:13:54;;;;;;;93.63;55.78;;;16.60;80.50;;;;;;4969454;28;95688;-43
2023/05/02 06:16:20;;;;;;;92.60;55.83;;;16.60;80.50;;;;;;4976308;28;96154;-44
2023/05/02 06:18:46;;;;;;;94.20;55.60;;;16.60;80.50;;;;;;4977949;28;94775;-44
2023/05/02 06:21:12;;;;;;;91.15;55.55;;;16.60;80.60;;;;;;4972875;28;95542;-45
2023/05/02 06:23:38;;;;;;;91.57;55.38;;;16.60;80.70;;;;;;4973850;28;95063;-43
2023/05/02 06:26:04;;;;;;;91.72;55.00;;;16.60;80.80;;;;;;4965961;28;95459;-46
2023/05/02 06:28:31;;;;;;;92.80;55.75;;;16.60;80.90;;;;;;4975099;28;94965;-46
2023/05/02 06:31:01;;;;;;;92.68;55.75;;;16.50;79.40;;;;;;4973244;28;95373;-46
2023/05/02 06:33:28;;;;;;;92.03;55.47;;;16.50;80.90;;;;;;4975167;28;94188;-49
2023/05/02 06:35:54;;;;;;;93.28;55.45;;;16.50;80.70;;;;;;4971122;28;95155;-52
2023/05/02 06:38:20;;;;;;;94.68;55.75;;;16.60;80.60;;;;;;4974159;28;95040;-46
2023/05/02 06:40:46;;;;;;;92.80;55.80;;;16.60;80.40;;;;;;4975203;28;95585;-49
2023/05/02 06:43:12;;;;;;;94.70;56.17;;;16.50;80.50;;;;;;4979183;28;96988;-45
2023/05/02 06:45:38;;;;;;;93.00;55.90;;;16.60;80.60;;;;;;4981666;28;95198;-47
2023/05/02 06:48:04;;;;;;;95.32;56.03;;;16.60;80.70;;;;;;4977579;28;94648;-47
2023/05/02 06:50:30;;;;;;;92.75;55.70;;;16.50;80.80;;;;;;4979539;28;96187;-50
2023/05/02 06:52:55;;;;;;;93.82;55.67;;;16.60;81.00;;;;;;4978310;28;95195;-48
2023/05/02 06:55:21;;;;;;;94.03;55.72;;;16.50;81.00;;;;;;4977512;28;94688;-47
2023/05/02 06:57:50;;;;;;;91.25;55.42;;;16.60;81.00;;;;;;4980998;28;94027;-44
2023/05/02 07:00:17;;;;;;;92.93;55.25;;;16.50;81.20;;;;;;4981861;28;95069;-49
2023/05/02 07:02:47;;;;;;;94.80;55.90;;;16.60;81.20;;;;;;4978070;28;95829;-47
2023/05/02 07:05:16;;;;;;;91.00;54.63;;;16.60;81.20;;;;;;4975486;28;95578;-47
2023/05/02 07:07:42;;;;;;;91.22;54.92;;;16.50;81.10;;;;;;4980662;28;94767;-45
2023/05/02 07:10:09;;;;;;;91.40;55.08;;;16.60;81.30;;;;;;4976588;28;94818;-47
2023/05/02 07:12:35;;;;;;;91.40;54.88;;;16.60;81.90;;;;;;4979177;28;96083;-46
2023/05/02 07:15:00;;;;;;;91.47;55.55;;;16.60;81.10;;;;;;4980930;28;94832;-48
2023/05/02 07:17:26;;;;;;;90.25;54.42;;;16.50;81.20;;;;;;4979999;28;95031;-48
2023/05/02 07:19:53;;;;;;;90.07;54.50;;;16.50;81.10;;;;;;4976500;28;95464;-48
2023/05/02 07:22:19;;;;;;;91.05;54.72;;;16.50;81.20;;;;;;4978004;28;96613;-46
2023/05/02 07:24:45;;;;;;;91.95;54.50;;;16.50;81.10;;;;;;4980153;28;95027;-47
2023/05/02 07:27:12;;;;;;;92.35;54.42;;;16.50;81.20;;;;;;4979137;28;94800;-46
2023/05/02 07:29:38;;;;;;;89.95;54.30;;;16.60;81.60;;;;;;4977290;28;98366;-46
2023/05/02 07:32:05;;;;;;;90.75;54.33;;;16.50;81.30;;;;;;4976750;28;95121;-46
2023/05/02 07:34:31;;;;;;;92.07;55.00;;;16.60;81.30;;;;;;4966988;28;95115;-47
2023/05/02 07:36:57;;;;;;;90.95;53.95;;;16.60;81.20;;;;;;4975126;28;96698;-47
2023/05/02 07:39:24;;;;;;;90.18;54.20;;;16.60;81.20;;;;;;4979864;28;94761;-43
2023/05/02 07:41:54;;;;;;;91.43;54.45;;;16.60;81.20;;;;;;4978769;28;94999;-43
2023/05/02 07:44:20;;;;;;;89.38;54.00;;;16.60;81.20;;;;;;4977739;28;95602;-44
2023/05/02 07:46:46;;;;;;;89.22;54.20;;;16.60;81.10;;;;;;4974086;28;94354;-44
2023/05/02 07:49:12;;;;;;;92.47;54.58;;;16.60;81.10;;;;;;4969283;28;95057;-47
2023/05/02 07:51:38;;;;;;;90.50;54.17;;;16.60;81.20;;;;;;4977649;28;95850;-44
2023/05/02 07:54:14;;;;;;;91.22;53.88;;;16.60;81.20;;;;;;4978723;28;96548;-44
2023/05/02 07:56:42;;;;;;;89.25;53.95;;;16.60;81.00;;;;;;4977186;28;94793;-46
2023/05/02 07:59:08;;;;;;;89.88;53.92;;;16.60;81.00;;;;;;4976183;28;95020;-44
2023/05/02 08:01:34;;;;;;;90.45;54.22;;;16.60;80.80;;;;;;4975087;28;94653;-43
2023/05/02 08:04:00;;;;;;;89.50;54.03;;;16.60;81.00;;;;;;4974572;28;94664;-44
2023/05/02 08:06:25;;;;;;;90.35;53.92;;;16.60;80.90;;;;;;4981251;28;95837;-45
2023/05/02 08:08:51;;;;;;;89.43;53.92;;;16.60;81.10;;;;;;4979569;28;95494;-42
2023/05/02 08:11:17;;;;;;;88.75;53.58;;;16.60;81.10;;;;;;4977454;28;94269;-45
2023/05/02 08:13:42;;;;;;;90.55;54.05;;;16.60;81.20;;;;;;4978266;28;95200;-44
2023/05/02 08:16:08;;;;;;;90.15;54.13;;;16.60;80.70;;;;;;4976331;28;94878;-43
2023/05/02 08:18:33;;;;;;;90.60;54.05;;;16.60;80.70;;;;;;4978473;28;95892;-43
2023/05/02 08:20:59;;;;;;;90.00;54.20;;;16.60;80.90;;;;;;4978612;28;95341;-44
2023/05/02 08:23:25;;;;;;;88.50;54.05;;;16.70;80.80;;;;;;4980671;28;95038;-45
2023/05/02 08:25:50;;;;;;;90.18;54.53;;;16.70;80.70;;;;;;4977679;28;94641;-45
2023/05/02 08:28:17;;;;;;;88.82;53.58;;;16.70;80.50;;;;;;4977819;28;97469;-44
2023/05/02 08:30:44;;;;;;;88.57;53.75;;;16.70;80.20;;;;;;4977027;28;94846;-44
2023/05/02 08:33:10;;;;;;;90.22;53.95;;;16.70;79.90;;;;;;4977719;28;95159;-47
2023/05/02 08:35:35;;;;;;;90.15;53.47;;;16.70;80.20;;;;;;4978703;28;94471;-46
2023/05/02 08:38:01;;;;;;;89.03;53.80;;;16.70;80.10;;;;;;4975742;28;100586;-43
2023/05/02 08:40:27;;;;;;;89.93;54.08;;;16.70;80.10;;;;;;4976889;28;95659;-44
2023/05/02 08:42:54;;;;;;;89.63;53.92;;;16.70;80.30;;;;;;4977190;28;95739;-46
2023/05/02 08:45:21;;;;;;;89.70;53.88;;;16.70;79.90;;;;;;4975803;28;94695;-45
2023/05/02 08:47:48;;;;;;;89.50;53.78;;;16.80;80.20;;;;;;4978775;28;95516;-47
2023/05/02 08:50:16;;;;;;;92.00;53.63;;;16.80;79.80;;;;;;4974813;28;94734;-45
2023/05/02 08:52:44;;;;;;;88.85;53.45;;;16.80;79.50;;;;;;4975356;28;94938;-47
2023/05/02 08:55:12;;;;;;;91.28;53.65;;;16.80;79.70;;;;;;4973113;28;94991;-46
2023/05/02 08:57:38;;;;;;;88.30;53.58;;;16.80;79.40;;;;;;4969255;28;94891;-46
2023/05/02 09:00:05;;;;;;;88.72;53.70;;;16.80;79.60;;;;;;4981630;28;95157;-45
2023/05/02 09:02:54;;;;;;;91.10;53.83;;;16.80;79.80;;;;;;4974708;28;94710;-46
2023/05/02 09:05:22;;;;;;;90.32;54.10;;;16.80;79.60;;;;;;4971955;28;94644;-46
2023/05/02 09:07:50;;;;;;;90.90;54.22;;;16.80;79.50;;;;;;4974286;28;96444;-44
2023/05/02 09:10:15;;;;;;;89.13;53.75;;;16.80;79.60;;;;;;4978960;28;95378;-46
2023/05/02 09:12:41;;;;;;;91.72;54.22;;;16.80;79.40;;;;;;4978376;28;94735;-44
2023/05/02 09:15:15;;;;;;;89.75;53.85;;;16.80;79.80;;;;;;4981631;28;95653;-45
2023/05/02 09:17:43;;;;;;;91.53;54.15;;;16.80;79.70;;;;;;4978100;28;94684;-43
2023/05/02 09:20:13;;;;;;;90.28;54.40;;;16.80;79.50;;;;;;4973684;28;94777;-44
2023/05/02 09:22:50;;;;;;;90.90;54.60;;;16.90;79.30;;;;;;4972016;28;94688;-45
2023/05/02 09:25:16;;;;;;;89.38;53.65;;;16.90;79.30;;;;;;4980723;28;95077;-44
2023/05/02 09:27:55;;;;;;;91.82;54.28;;;16.90;79.30;;;;;;4979142;28;95433;-45
2023/05/02 09:30:24;;;;;;;92.32;54.28;;;16.90;79.30;;;;;;4976079;28;94933;-45
2023/05/02 09:32:50;;;;;;;89.68;53.88;;;16.90;79.40;;;;;;4977247;28;95761;-43
2023/05/02 09:35:22;;;;;;;90.63;54.78;;;16.90;79.50;;;;;;4976424;28;94953;-43
2023/05/02 09:37:56;;;;;;;91.70;54.42;;;16.90;79.30;;;;;;4975690;28;95760;-47
2023/05/02 09:40:24;;;;;;;88.60;54.00;;;16.90;79.30;;;;;;4974022;28;95380;-44
2023/05/02 09:42:50;;;;;;;91.18;54.35;;;16.90;79.40;;;;;;4971358;28;94625;-44
2023/05/02 09:45:23;;;;;;;91.53;54.13;;;16.90;80.10;;;;;;4977010;28;96100;-47
2023/05/02 09:47:50;;;;;;;90.57;54.20;;;16.90;79.40;;;;;;4977191;28;94354;-45
2023/05/02 09:50:32;;;;;;;90.97;54.28;;;17.00;79.50;;;;;;4972308;28;95129;-46
2023/05/02 09:53:02;;;;;;;89.90;54.03;;;17.00;79.40;;;;;;4972336;28;95407;-44
2023/05/02 09:55:28;;;;;;;93.65;55.08;;;17.00;79.40;;;;;;4976261;28;94801;-43
2023/05/02 09:57:53;;;;;;;92.30;55.20;;;17.00;79.10;;;;;;4973799;28;95847;-45
2023/05/02 10:00:19;;;;;;;94.68;54.83;;;17.00;79.60;;;;;;4975571;28;95266;-45
2023/05/02 10:02:49;;;;;;;92.63;55.17;;;17.00;79.70;;;;;;4971257;28;95212;-44
2023/05/02 10:05:16;;;;;;;92.03;54.75;;;17.00;79.60;;;;;;4976755;28;94851;-45
2023/05/02 10:07:43;;;;;;;93.70;55.20;;;17.00;79.70;;;;;;4974615;28;95335;-43
2023/05/02 10:10:15;;;;;;;95.35;55.67;;;17.00;79.70;;;;;;4979343;28;94572;-45
2023/05/02 10:12:41;;;;;;;95.70;54.80;;;17.00;79.70;;;;;;4975188;28;94726;-44
2023/05/02 10:15:12;;;;;;;94.55;54.95;;;17.10;80.10;;;;;;4970795;28;94125;-44
2023/05/02 10:17:47;;;;;;;92.83;55.30;;;17.00;80.20;;;;;;4977268;28;95370;-44
2023/05/02 10:20:17;;;;;;;91.22;55.05;;;17.10;80.30;;;;;;4976129;28;96647;-45
2023/05/02 10:22:46;;;;;;;93.73;56.20;;;17.10;80.30;;;;;;4977180;28;96027;-45
2023/05/02 10:25:12;;;;;;;94.47;56.13;;;17.10;79.80;;;;;;4974098;28;94684;-46
2023/05/02 10:27:38;;;;;;;95.88;56.05;;;17.10;79.60;;;;;;4979601;28;95107;-47
2023/05/02 10:30:05;;;;;;;92.70;55.35;;;17.10;79.80;;;;;;4974970;28;95039;-44
2023/05/02 10:32:33;;;;;;;95.30;55.50;;;17.10;79.80;;;;;;4981050;28;94721;-44
2023/05/02 10:35:03;;;;;;;94.93;56.00;;;17.10;79.80;;;;;;4978091;28;95573;-45
2023/05/02 10:37:32;;;;;;;96.63;55.45;;;17.10;79.80;;;;;;4965726;28;97347;-44
2023/05/02 10:39:59;;;;;;;92.25;55.28;;;17.10;79.90;;;;;;4964971;28;95475;-46
2023/05/02 10:42:26;;;;;;;105.43;59.75;;;17.10;80.00;;;;;;4976140;28;95173;-44
2023/05/02 10:44:52;;;;;;;105.00;60.00;;;17.20;80.20;;;;;;4973671;28;95250;-45
2023/05/02 10:47:22;;;;;;;126.18;70.35;;;17.20;80.30;;;;;;4965581;28;95943;-44
2023/05/02 10:50:08;;;;;;;143.80;76.83;;;17.20;80.30;;;;;;4965042;28;100770;-46
2023/05/02 10:52:37;;;;;;;139.32;75.00;;;17.20;80.20;;;;;;4964654;28;100206;-44
2023/05/02 10:55:22;;;;;;;150.25;80.97;;;17.20;80.10;;;;;;4968345;28;96063;-45
2023/05/02 10:57:57;;;;;;;151.52;83.22;;;17.20;79.60;;;;;;4976598;28;94975;-45
2023/05/02 11:00:32;;;;;;;148.20;84.70;;;17.20;79.10;;;;;;4981577;28;95061;-45
2023/05/02 11:02:58;;;;;;;147.63;81.50;;;17.20;78.70;;;;;;4965702;28;94990;-46
2023/05/02 11:05:25;;;;;;;152.15;82.28;;;17.20;78.50;;;;;;4965627;28;94249;-44
2023/05/02 11:08:16;;;;;;;143.43;81.40;;;17.20;78.10;;;;;;4968299;28;97370;-46
2023/05/02 11:10:44;;;;;;;142.85;78.18;;;17.20;77.90;;;;;;4972628;28;96148;-46
2023/05/02 11:13:10;;;;;;;144.68;78.40;;;17.20;77.30;;;;;;4977085;28;95782;-44
2023/05/02 11:15:39;;;;;;;133.52;77.30;;;17.20;76.80;;;;;;4970233;28;94861;-47
2023/05/02 11:18:12;;;;;;;133.45;76.18;;;17.20;76.50;;;;;;4968281;28;96547;-47
2023/05/02 11:20:40;;;;;;;134.23;74.07;;;17.30;76.10;;;;;;4970375;28;95328;-45
2023/05/02 11:23:20;;;;;;;127.80;73.95;;;17.30;75.80;;;;;;4970172;28;95490;-44
2023/05/02 11:25:54;;;;;;;131.13;74.83;;;17.30;75.60;;;;;;4970320;28;94689;-45
2023/05/02 11:28:40;;;;;;;126.82;72.28;;;17.30;75.60;;;;;;4981019;28;95046;-47
2023/05/02 11:31:28;;;;;;;122.22;71.07;;;17.20;75.60;;;;;;4979304;28;95154;-47
2023/05/02 11:33:58;;;;;;;124.00;71.05;;;17.20;75.50;;;;;;4975783;28;94909;-45
2023/05/02 11:36:34;;;;;;;122.85;70.80;;;17.30;75.30;;;;;;4979101;28;94746;-48
2023/05/02 11:39:06;;;;;;;121.78;70.03;;;17.30;75.10;;;;;;4975525;28;97374;-45
2023/05/02 11:41:41;;;;;;;119.60;68.15;;;17.30;74.70;;;;;;4976366;28;95242;-44
2023/05/02 11:44:07;;;;;;;118.32;67.78;;;17.40;74.40;;;;;;4969950;28;94962;-44
2023/05/02 11:46:36;;;;;;;115.85;67.43;;;17.30;74.10;;;;;;4975713;28;94815;-45
2023/05/02 11:49:02;;;;;;;116.85;65.47;;;17.30;73.70;;;;;;4975830;28;95467;-46
2023/05/02 11:51:28;;;;;;;115.65;65.55;;;17.40;73.70;;;;;;4973281;28;95342;-45
2023/05/02 11:53:54;;;;;;;110.70;64.80;;;17.30;73.70;;;;;;4973807;28;94689;-45
2023/05/02 11:56:25;;;;;;;116.68;64.65;;;17.40;73.70;;;;;;4979385;28;93783;-45
2023/05/02 11:59:01;;;;;;;112.35;64.07;;;17.40;73.70;;;;;;4973006;28;95640;-45
2023/05/02 12:01:27;;;;;;;114.55;65.10;;;17.40;73.70;;;;;;4976431;28;95016;-45
2023/05/02 12:04:04;;;;;;;111.65;63.53;;;17.40;74.00;;;;;;4967155;28;96149;-45
2023/05/02 12:06:30;;;;;;;110.30;64.53;;;17.40;74.10;;;;;;4965339;28;94479;-45
2023/05/02 12:09:09;;;;;;;108.85;63.17;;;17.40;74.30;;;;;;4968489;28;96360;-46
2023/05/02 12:11:37;;;;;;;107.55;62.67;;;17.40;74.50;;;;;;4959513;28;95325;-48
2023/05/02 12:14:03;;;;;;;107.55;62.50;;;17.40;74.60;;;;;;4965515;28;99856;-49
2023/05/02 12:16:28;;;;;;;110.53;62.63;;;17.40;74.70;;;;;;4965521;28;96922;-49
2023/05/02 12:18:56;;;;;;;108.75;63.22;;;17.50;74.90;;;;;;4965484;28;96065;-50
2023/05/02 12:21:22;;;;;;;109.25;62.58;;;17.40;75.00;;;;;;4960992;28;94612;-43
2023/05/02 12:23:48;;;;;;;108.80;62.65;;;17.50;75.20;;;;;;4967334;28;95487;-45
2023/05/02 12:26:24;;;;;;;108.60;62.50;;;17.50;75.30;;;;;;4970605;28;97085;-47
2023/05/02 12:28:51;;;;;;;107.18;63.13;;;17.50;75.40;;;;;;4970292;28;95868;-47
2023/05/02 12:31:17;;;;;;;105.28;61.55;;;17.50;75.50;;;;;;4968175;28;96050;-44